Time;durP1;ratioP1;P1;durP2;ratioP2;P2;SDS_P1;SDS_P2;PMS_P1;PMS_P2;Temp;Humidity;BMP_temperature;BMP_pressure;BME280_temperature;BME280_humidity;BME280_pressure;Samples;Min_cycle;Max_cycle;Signal;HPM_P1;HPM_P2
2023/08/28 00:01:11;;;;;;;7.70;7.10;;;;;;;23.83;100.00;98349.01;109656;1254;60183;-67
2023/08/28 00:03:40;;;;;;;8.00;7.30;;;;;;;23.84;100.00;98346.95;109630;1250;74523;-67
2023/08/28 00:06:06;;;;;;;8.40;7.40;;;;;;;23.89;100.00;98344.73;109625;1250;66942;-67
2023/08/28 00:08:33;;;;;;;8.60;7.80;;;;;;;23.95;100.00;98340.66;109671;1250;72609;-68
2023/08/28 00:10:59;;;;;;;8.20;7.40;;;;;;;24.01;100.00;98341.43;109373;1251;62123;-67
2023/08/28 00:13:26;;;;;;;9.00;8.20;;;;;;;24.09;100.00;98341.98;109600;1250;59068;-66
2023/08/28 00:15:53;;;;;;;11.40;8.30;;;;;;;24.17;100.00;98340.30;109634;1250;73325;-67
2023/08/28 00:18:19;;;;;;;9.60;7.80;;;;;;;24.25;100.00;98337.08;109704;1250;66921;-67
2023/08/28 00:20:46;;;;;;;8.20;7.40;;;;;;;24.30;100.00;98339.58;109619;1250;71096;-68
2023/08/28 00:23:12;;;;;;;9.80;7.40;;;;;;;24.35;100.00;98341.34;109656;1250;60769;-68
2023/08/28 00:25:39;;;;;;;12.50;7.60;;;;;;;24.38;100.00;98341.73;109515;1250;61248;-68
2023/08/28 00:28:06;;;;;;;11.60;7.70;;;;;;;24.43;100.00;98341.58;109631;1253;58993;-66
2023/08/28 00:30:33;;;;;;;8.50;7.40;;;;;;;24.47;100.00;98343.33;109622;1250;67678;-67
2023/08/28 00:33:01;;;;;;;9.70;7.70;;;;;;;24.51;100.00;98344.10;109549;1250;72812;-68
2023/08/28 00:35:28;;;;;;;9.70;8.00;;;;;;;24.54;100.00;98342.98;109603;1255;60158;-68
2023/08/28 00:37:55;;;;;;;11.10;8.20;;;;;;;24.57;100.00;98340.94;109516;1251;60192;-67
2023/08/28 00:40:22;;;;;;;8.10;7.40;;;;;;;24.59;100.00;98341.69;109626;1254;73132;-68
2023/08/28 00:42:48;;;;;;;12.70;8.00;;;;;;;24.60;100.00;98340.76;109642;1250;59091;-67
2023/08/28 00:45:15;;;;;;;10.10;7.90;;;;;;;24.58;100.00;98337.32;109659;1250;73856;-68
2023/08/28 00:47:44;;;;;;;10.20;8.50;;;;;;;24.58;100.00;98336.08;109585;1250;61797;-68
2023/08/28 00:50:10;;;;;;;9.90;8.10;;;;;;;24.58;100.00;98336.95;109521;1255;59046;-67
2023/08/28 00:52:37;;;;;;;10.30;8.20;;;;;;;24.59;100.00;98339.45;109490;1251;74980;-67
2023/08/28 00:55:04;;;;;;;9.90;8.00;;;;;;;24.59;100.00;98340.60;109604;1251;67685;-66
2023/08/28 00:57:31;;;;;;;8.70;7.40;;;;;;;24.58;100.00;98342.80;109512;1251;71442;-67
2023/08/28 00:59:58;;;;;;;9.80;8.50;;;;;;;24.58;100.00;98341.77;109371;1252;59280;-67
2023/08/28 01:02:24;;;;;;;9.10;8.10;;;;;;;24.55;100.00;98336.23;109608;1251;60747;-67
2023/08/28 01:04:52;;;;;;;13.30;7.90;;;;;;;24.54;100.00;98335.59;109572;1250;73400;-67
2023/08/28 01:07:19;;;;;;;12.40;7.80;;;;;;;24.53;100.00;98335.81;109561;1250;67846;-67
2023/08/28 01:10:18;;;;;;;9.90;7.80;;;;;;;24.52;100.00;98333.05;109662;1251;72371;-66
2023/08/28 01:12:57;;;;;;;15.60;8.60;;;;;;;24.52;100.00;98331.26;109625;1251;58981;-66
2023/08/28 01:15:23;;;;;;;12.70;8.50;;;;;;;24.52;100.00;98329.95;109577;1250;58904;-66
2023/08/28 01:17:54;;;;;;;10.80;8.30;;;;;;;24.52;100.00;98328.05;109518;1251;74538;-67
2023/08/28 01:20:21;;;;;;;10.00;8.80;;;;;;;24.51;100.00;98328.67;109408;1250;66527;-66
2023/08/28 01:22:57;;;;;;;13.90;8.30;;;;;;;24.49;100.00;98324.92;109399;1253;72762;-69
2023/08/28 01:25:24;;;;;;;10.90;8.80;;;;;;;24.49;100.00;98325.10;109525;1251;60462;-66
2023/08/28 01:27:52;;;;;;;10.50;8.70;;;;;;;24.48;100.00;98320.48;109651;1251;60005;-67
2023/08/28 01:30:20;;;;;;;9.20;8.20;;;;;;;24.49;100.00;98322.65;109499;1251;74480;-66
2023/08/28 01:32:47;;;;;;;9.10;8.30;;;;;;;24.49;100.00;98322.70;109611;1251;67234;-67
2023/08/28 01:35:20;;;;;;;9.80;8.80;;;;;;;24.49;100.00;98320.64;109436;1251;72501;-67
2023/08/28 01:38:19;;;;;;;9.80;8.60;;;;;;;24.47;100.00;98319.56;109664;1249;60292;-67
2023/08/28 01:40:56;;;;;;;10.70;8.70;;;;;;;24.44;100.00;98315.04;109578;1250;59415;-67
2023/08/28 01:43:23;;;;;;;11.40;9.30;;;;;;;24.42;100.00;98311.91;109559;1251;74545;-71
2023/08/28 01:45:50;;;;;;;14.40;8.90;;;;;;;24.41;100.00;98310.23;109473;1251;66399;-67
2023/08/28 01:48:17;;;;;;;12.90;8.60;;;;;;;24.40;100.00;98310.55;109436;1250;71395;-68
2023/08/28 01:50:43;;;;;;;12.20;9.20;;;;;;;24.41;100.00;98314.30;109655;1250;58908;-68
2023/08/28 01:53:12;;;;;;;12.40;8.20;;;;;;;24.40;100.00;98313.27;109691;1250;60064;-69
2023/08/28 01:55:45;;;;;;;12.20;8.40;;;;;;;24.39;100.00;98310.04;109484;1250;74453;-67
2023/08/28 01:58:13;;;;;;;10.00;8.30;;;;;;;24.36;100.00;98308.66;109521;1251;66738;-68
2023/08/28 02:00:39;;;;;;;12.80;8.90;;;;;;;24.31;100.00;98302.67;109552;1251;72658;-70
2023/08/28 02:03:08;;;;;;;9.60;8.60;;;;;;;24.27;100.00;98298.20;109636;1251;61210;-68
2023/08/28 02:05:34;;;;;;;11.00;8.10;;;;;;;24.23;100.00;98299.55;109690;1251;58902;-69
2023/08/28 02:08:01;;;;;;;10.90;8.20;;;;;;;24.20;100.00;98296.64;109482;1250;74330;-67
2023/08/28 02:10:28;;;;;;;10.30;7.90;;;;;;;24.19;100.00;98298.19;109507;1250;66721;-71
2023/08/28 02:12:56;;;;;;;9.30;8.30;;;;;;;24.19;100.00;98296.33;109621;1251;72965;-69
2023/08/28 02:15:23;;;;;;;9.30;8.10;;;;;;;24.21;100.00;98295.27;109463;1251;60552;-68
2023/08/28 02:17:49;;;;;;;9.70;8.40;;;;;;;24.22;100.00;98293.48;109643;1251;60034;-72
2023/08/28 02:20:16;;;;;;;10.20;8.90;;;;;;;24.22;100.00;98291.87;109550;1256;73383;-72
2023/08/28 02:22:43;;;;;;;9.70;8.70;;;;;;;24.24;100.00;98285.08;109484;1251;67360;-70
2023/08/28 02:25:09;;;;;;;10.60;8.60;;;;;;;24.26;100.00;98288.74;109623;1251;71306;-71
2023/08/28 02:27:36;;;;;;;12.30;8.70;;;;;;;24.28;100.00;98292.36;109657;1249;61757;-73
2023/08/28 02:30:03;;;;;;;12.90;8.50;;;;;;;24.30;100.00;98291.42;109663;1251;60081;-70
2023/08/28 02:32:30;;;;;;;8.90;8.10;;;;;;;24.32;100.00;98289.06;109478;1251;74353;-72
2023/08/28 02:34:59;;;;;;;10.00;8.90;;;;;;;24.34;100.00;98287.09;109618;1251;66814;-71
2023/08/28 02:37:25;;;;;;;12.00;8.40;;;;;;;24.35;100.00;98288.55;109470;1251;72437;-70
2023/08/28 02:39:52;;;;;;;9.90;9.00;;;;;;;24.35;100.00;98292.73;109485;1251;59015;-72
2023/08/28 02:42:18;;;;;;;9.50;7.90;;;;;;;24.34;100.00;98293.46;109557;1250;60587;-71
2023/08/28 02:44:45;;;;;;;10.80;9.20;;;;;;;24.32;100.00;98291.95;109653;1251;74483;-71
2023/08/28 02:47:12;;;;;;;8.90;8.00;;;;;;;24.31;100.00;98296.42;109552;1251;67586;-69
2023/08/28 02:49:38;;;;;;;11.30;7.90;;;;;;;24.30;100.00;98299.26;109621;1251;72709;-72
2023/08/28 02:52:05;;;;;;;12.80;8.70;;;;;;;24.30;100.00;98306.96;109626;1251;58952;-69
2023/08/28 02:54:32;;;;;;;9.10;8.00;;;;;;;24.31;100.00;98309.79;109542;1251;59974;-71
2023/08/28 02:56:59;;;;;;;11.00;8.60;;;;;;;24.30;100.00;98311.38;109538;1251;73190;-71
2023/08/28 02:59:27;;;;;;;10.90;8.70;;;;;;;24.30;100.00;98314.64;109520;1250;66593;-72
2023/08/28 03:01:54;;;;;;;11.20;8.10;;;;;;;24.31;100.00;98315.23;109495;1251;72476;-72
2023/08/28 03:04:21;;;;;;;10.50;8.50;;;;;;;24.31;100.00;98318.16;109604;1250;60523;-71
2023/08/28 03:06:48;;;;;;;14.10;8.80;;;;;;;24.29;100.00;98319.77;109658;1250;59387;-69
2023/08/28 03:09:14;;;;;;;9.70;8.40;;;;;;;24.29;100.00;98321.93;109669;1251;75839;-68
2023/08/28 03:11:41;;;;;;;9.70;8.70;;;;;;;24.28;100.00;98321.55;109684;1251;67722;-69
2023/08/28 03:14:08;;;;;;;9.00;8.20;;;;;;;24.29;100.00;98324.43;109555;1251;71441;-68
2023/08/28 03:16:34;;;;;;;10.70;8.90;;;;;;;24.30;100.00;98323.39;109694;1250;60657;-69
2023/08/28 03:19:01;;;;;;;9.70;7.60;;;;;;;24.31;100.00;98322.84;109511;1251;60200;-69
2023/08/28 03:21:28;;;;;;;11.60;8.10;;;;;;;24.32;100.00;98325.17;109584;1251;73402;-70
2023/08/28 03:23:55;;;;;;;14.30;8.50;;;;;;;24.32;100.00;98326.64;109678;1251;67749;-69
2023/08/28 03:26:22;;;;;;;10.00;8.60;;;;;;;24.32;100.00;98325.93;109691;1251;72491;-72
2023/08/28 03:28:48;;;;;;;10.60;8.20;;;;;;;24.32;100.00;98325.55;109647;1254;61130;-69
2023/08/28 03:31:15;;;;;;;10.30;8.00;;;;;;;24.31;100.00;98325.27;109703;1250;58883;-69
2023/08/28 03:33:43;;;;;;;9.50;8.30;;;;;;;24.31;100.00;98327.02;109598;1251;74617;-70
2023/08/28 03:36:09;;;;;;;9.50;7.70;;;;;;;24.28;100.00;98331.50;109645;1251;66629;-70
2023/08/28 03:38:36;;;;;;;9.70;8.10;;;;;;;24.26;100.00;98334.63;109629;1251;71471;-70
2023/08/28 03:41:07;;;;;;;12.30;8.20;;;;;;;24.25;100.00;98335.77;109577;1250;61701;-70
2023/08/28 03:43:34;;;;;;;14.10;8.60;;;;;;;24.24;100.00;98336.02;109609;1251;60149;-69
2023/08/28 03:46:01;;;;;;;10.40;8.30;;;;;;;24.23;100.00;98338.94;109631;1251;74481;-70
2023/08/28 03:48:28;;;;;;;14.70;9.60;;;;;;;24.23;100.00;98340.45;109629;1251;68084;-70
2023/08/28 03:50:54;;;;;;;8.90;8.00;;;;;;;24.23;100.00;98336.33;109598;1251;59018;-72
2023/08/28 03:53:21;;;;;;;8.80;7.90;;;;;;;24.23;100.00;98334.80;109510;1251;61943;-70
2023/08/28 03:55:48;;;;;;;11.00;8.60;;;;;;;24.23;100.00;98332.41;109569;1251;58852;-67
2023/08/28 03:58:16;;;;;;;15.00;8.70;;;;;;;24.25;100.00;98335.11;109685;1250;74499;-68
2023/08/28 04:00:42;;;;;;;9.20;7.90;;;;;;;24.28;100.00;98337.42;109685;1251;66304;-69
2023/08/28 04:03:09;;;;;;;10.00;8.60;;;;;;;24.30;100.00;98336.70;109537;1250;70509;-69
2023/08/28 04:05:37;;;;;;;11.80;8.70;;;;;;;24.36;100.00;98344.59;109582;1250;60215;-68
2023/08/28 04:08:05;;;;;;;10.20;8.30;;;;;;;24.41;100.00;98344.65;109622;1250;58964;-69
2023/08/28 04:10:31;;;;;;;12.20;8.30;;;;;;;24.47;100.00;98348.77;109506;1251;72449;-69
2023/08/28 04:12:58;;;;;;;11.30;7.90;;;;;;;24.54;100.00;98351.64;109556;1251;67880;-69
2023/08/28 04:15:25;;;;;;;8.70;7.50;;;;;;;24.61;100.00;98346.29;109531;1254;59306;-69
2023/08/28 04:17:51;;;;;;;9.00;8.10;;;;;;;24.71;100.00;98344.82;109601;1250;60500;-70
2023/08/28 04:20:18;;;;;;;11.00;8.50;;;;;;;24.80;100.00;98344.36;109725;1251;59027;-70
2023/08/28 04:22:45;;;;;;;11.10;8.10;;;;;;;24.91;100.00;98346.14;109579;1251;75182;-70
2023/08/28 04:25:13;;;;;;;11.10;8.20;;;;;;;25.03;100.00;98345.51;109699;1250;66387;-70
2023/08/28 04:27:40;;;;;;;12.20;8.20;;;;;;;25.16;100.00;98344.63;109524;1250;71268;-69
2023/08/28 04:30:07;;;;;;;10.60;8.20;;;;;;;25.31;100.00;98347.92;109622;1250;59119;-70
2023/08/28 04:32:35;;;;;;;10.50;8.80;;;;;;;25.48;100.00;98351.04;109417;1250;60075;-70
2023/08/28 04:35:02;;;;;;;9.00;8.20;;;;;;;25.66;100.00;98349.42;109537;1254;74910;-70
2023/08/28 04:37:30;;;;;;;12.20;8.90;;;;;;;25.90;100.00;98348.14;109641;1251;67389;-69
2023/08/28 04:39:57;;;;;;;9.70;8.40;;;;;;;26.13;100.00;98345.73;109674;1250;72686;-69
2023/08/28 04:42:24;;;;;;;9.00;8.20;;;;;;;26.34;100.00;98337.29;109635;1250;60177;-70
2023/08/28 04:44:50;;;;;;;10.90;8.30;;;;;;;26.55;100.00;98340.62;109567;1251;60163;-70
2023/08/28 04:47:17;;;;;;;11.00;8.00;;;;;;;26.78;100.00;98336.21;109571;1250;74613;-70
2023/08/28 04:49:43;;;;;;;10.80;7.90;;;;;;;27.03;100.00;98335.17;109654;1250;68086;-69
2023/08/28 04:52:11;;;;;;;11.20;7.60;;;;;;;27.27;100.00;98333.75;109481;1250;72457;-68
2023/08/28 04:54:37;;;;;;;8.60;7.30;;;;;;;27.50;100.00;98333.21;109420;1251;59026;-70
2023/08/28 04:57:04;;;;;;;8.70;7.90;;;;;;;27.74;100.00;98331.46;109558;1251;59221;-69
2023/08/28 04:59:31;;;;;;;9.00;8.00;;;;;;;27.98;100.00;98334.39;109652;1250;74671;-70
2023/08/28 05:01:57;;;;;;;7.90;7.00;;;;;;;28.23;100.00;98334.64;109489;1251;68062;-69
2023/08/28 05:04:24;;;;;;;11.20;7.20;;;;;;;28.48;100.00;98337.46;109496;1250;71312;-69
2023/08/28 05:06:50;;;;;;;11.10;7.20;;;;;;;28.71;100.00;98335.33;109589;1250;59007;-69
2023/08/28 05:09:17;;;;;;;8.40;6.90;;;;;;;28.92;100.00;98335.63;109637;1250;58992;-68
2023/08/28 05:11:45;;;;;;;7.80;7.00;;;;;;;29.12;100.00;98327.33;109690;1250;74436;-68
2023/08/28 05:14:12;;;;;;;14.50;7.00;;;;;;;29.33;100.00;98328.46;109565;1250;66681;-69
2023/08/28 05:16:39;;;;;;;7.80;6.40;;;;;;;29.56;100.00;98326.52;109336;1250;283791;-67
2023/08/28 05:19:06;;;;;;;12.50;7.20;;;;;;;29.80;100.00;98326.87;109569;1250;58990;-68
2023/08/28 05:21:33;;;;;;;13.30;7.60;;;;;;;30.04;100.00;98323.80;109485;1250;59007;-70
2023/08/28 05:24:01;;;;;;;10.00;7.60;;;;;;;30.28;100.00;98322.06;109518;1250;73142;-70
2023/08/28 05:26:29;;;;;;;9.20;7.50;;;;;;;30.53;100.00;98323.31;109555;1250;68047;-72
2023/08/28 05:28:57;;;;;;;8.90;7.20;;;;;;;30.77;100.00;98325.69;109537;1250;73726;-68
2023/08/28 05:31:24;;;;;;;12.50;7.10;;;;;;;30.98;100.00;98326.73;109556;1250;60185;-70
2023/08/28 05:33:50;;;;;;;10.60;6.40;;;;;;;31.21;100.00;98323.96;109563;1250;59144;-68
2023/08/28 05:36:18;;;;;;;7.60;6.70;;;;;;;31.46;100.00;98324.80;109536;1250;74570;-72
2023/08/28 05:38:44;;;;;;;10.60;7.00;;;;;;;31.67;100.00;98326.71;109555;1251;66545;-71
2023/08/28 05:41:11;;;;;;;13.10;7.40;;;;;;;31.87;98.92;98327.22;109550;1250;72704;-71
2023/08/28 05:43:38;;;;;;;11.40;7.10;;;;;;;32.04;96.82;98327.58;109593;1251;60939;-72
2023/08/28 05:46:08;;;;;;;12.20;7.70;;;;;;;32.18;95.49;98326.13;109633;1251;62516;-68
2023/08/28 05:48:35;;;;;;;9.90;7.40;;;;;;;32.34;94.23;98328.01;109598;1250;75546;-63
2023/08/28 05:51:03;;;;;;;8.90;7.10;;;;;;;32.46;93.30;98329.46;109552;1250;67806;-71
2023/08/28 05:53:29;;;;;;;11.20;7.60;;;;;;;32.58;92.27;98326.60;109511;1250;73499;-72
2023/08/28 05:55:56;;;;;;;11.90;7.40;;;;;;;32.71;91.34;98329.81;109574;1250;58840;-72
2023/08/28 05:58:23;;;;;;;14.60;7.40;;;;;;;32.89;90.74;98328.84;109591;1250;60132;-73
2023/08/28 06:00:50;;;;;;;9.80;7.10;;;;;;;33.09;89.60;98329.09;109570;1253;74656;-64
2023/08/28 06:03:18;;;;;;;8.70;7.70;;;;;;;33.23;88.06;98324.36;109549;1250;67721;-68
2023/08/28 06:05:45;;;;;;;16.20;7.80;;;;;;;33.36;87.09;98323.11;109534;1250;71627;-68
2023/08/28 06:08:11;;;;;;;10.40;7.50;;;;;;;33.48;86.77;98316.89;109632;1250;59321;-69
2023/08/28 06:10:40;;;;;;;9.10;7.60;;;;;;;33.58;84.80;98316.27;109473;1251;59903;-69
2023/08/28 06:13:10;;;;;;;13.90;8.50;;;;;;;33.75;84.48;98311.89;109574;1250;74584;-72
2023/08/28 06:15:36;;;;;;;12.50;7.80;;;;;;;34.25;81.51;98311.83;109661;1250;66767;-71
2023/08/28 06:18:04;;;;;;;18.30;8.00;;;;;;;34.70;78.72;98318.58;109543;1250;72663;-75
2023/08/28 06:20:32;;;;;;;13.00;8.60;;;;;;;34.97;76.91;98325.23;109463;1250;59091;-72
2023/08/28 06:22:59;;;;;;;15.70;8.80;;;;;;;35.09;76.48;98329.98;109516;1250;60214;-69
2023/08/28 06:25:25;;;;;;;14.20;8.20;;;;;;;35.24;76.82;98331.38;109419;1251;74543;-71
2023/08/28 06:27:52;;;;;;;13.50;8.20;;;;;;;35.39;75.14;98335.90;109419;1250;66663;-71
2023/08/28 06:30:19;;;;;;;8.80;7.20;;;;;;;35.51;73.26;98332.77;109422;1250;72953;-65
2023/08/28 06:32:46;;;;;;;16.70;8.10;;;;;;;35.63;71.71;98334.19;109597;1250;58978;-66
2023/08/28 06:35:13;;;;;;;11.50;7.30;;;;;;;35.77;70.71;98334.02;109521;1250;60607;-66
2023/08/28 06:37:39;;;;;;;11.80;7.70;;;;;;;35.93;70.68;98329.45;109384;1250;73770;-65
2023/08/28 06:40:08;;;;;;;16.80;6.70;;;;;;;36.15;68.63;98330.39;109539;1250;66752;-65
2023/08/28 06:42:35;;;;;;;10.30;6.10;;;;;;;36.26;64.85;98331.56;109473;1250;72618;-66
2023/08/28 06:45:07;;;;;;;12.50;7.40;;;;;;;36.30;64.12;98340.42;109530;1250;58971;-65
2023/08/28 06:47:33;;;;;;;10.30;6.50;;;;;;;36.42;62.59;98331.46;109513;1250;58931;-65
2023/08/28 06:50:03;;;;;;;16.40;6.60;;;;;;;36.59;61.38;98327.45;109421;1250;74950;-65
2023/08/28 06:52:30;;;;;;;10.60;6.60;;;;;;;36.77;61.51;98336.71;109468;1250;67300;-66
2023/08/28 06:54:57;;;;;;;15.30;6.90;;;;;;;36.89;60.74;98336.93;109444;1250;71177;-66
2023/08/28 06:57:23;;;;;;;11.00;6.90;;;;;;;37.00;59.77;98336.04;109441;1251;59210;-67
2023/08/28 06:59:50;;;;;;;11.00;6.80;;;;;;;37.10;58.70;98338.48;109468;1250;60525;-68
2023/08/28 07:02:16;;;;;;;15.40;6.80;;;;;;;37.16;57.60;98341.75;109617;1250;74450;-71
2023/08/28 07:04:46;;;;;;;9.60;7.50;;;;;;;37.18;57.16;98346.30;109647;1250;66836;-68
2023/08/28 07:07:15;;;;;;;11.00;6.90;;;;;;;37.19;56.57;98344.64;109647;1250;71355;-67
2023/08/28 07:09:42;;;;;;;11.10;6.30;;;;;;;37.22;56.44;98348.90;109627;1250;59208;-67
2023/08/28 07:12:08;;;;;;;10.40;7.40;;;;;;;37.29;56.35;98347.34;109535;1250;59717;-65
2023/08/28 07:14:35;;;;;;;11.10;6.90;;;;;;;37.39;55.94;98347.27;109544;1251;75306;-66
2023/08/28 07:17:02;;;;;;;8.50;6.60;;;;;;;37.50;55.42;98347.13;109627;1250;66738;-65
2023/08/28 07:19:29;;;;;;;9.60;6.90;;;;;;;37.56;55.13;98350.71;109530;1250;72454;-66
2023/08/28 07:21:59;;;;;;;9.10;6.80;;;;;;;37.68;55.10;98354.77;109528;1251;60085;-65
2023/08/28 07:24:27;;;;;;;13.20;7.50;;;;;;;37.87;55.04;98350.27;109653;1250;60282;-68
2023/08/28 07:26:53;;;;;;;8.60;7.60;;;;;;;38.06;53.69;98352.67;109634;1250;74425;-66
2023/08/28 07:29:22;;;;;;;11.50;7.30;;;;;;;38.18;52.57;98357.73;109678;1250;66472;-67
2023/08/28 07:31:48;;;;;;;9.00;6.70;;;;;;;38.28;51.57;98354.13;109618;1250;72501;-67
2023/08/28 07:34:15;;;;;;;10.50;7.20;;;;;;;38.37;50.50;98354.17;109585;1251;58967;-68
2023/08/28 07:36:43;;;;;;;12.30;7.50;;;;;;;38.42;50.11;98360.10;109455;1250;58917;-68
2023/08/28 07:39:10;;;;;;;11.30;7.60;;;;;;;38.47;49.67;98364.05;109566;1250;74833;-68
2023/08/28 07:41:37;;;;;;;11.50;7.20;;;;;;;38.50;50.08;98362.96;109646;1250;67784;-69
2023/08/28 07:44:04;;;;;;;12.10;7.00;;;;;;;38.62;50.12;98365.47;109549;1250;72452;-68
2023/08/28 07:46:31;;;;;;;9.80;7.10;;;;;;;38.69;49.22;98366.97;109609;1250;60811;-67
2023/08/28 07:48:58;;;;;;;8.10;6.70;;;;;;;38.81;49.14;98373.63;109493;1250;60223;-70
2023/08/28 07:51:24;;;;;;;11.90;7.70;;;;;;;38.90;49.12;98371.63;109512;1250;73999;-70
2023/08/28 07:53:51;;;;;;;8.70;7.70;;;;;;;38.99;48.25;98369.50;109437;1251;66405;-70
2023/08/28 07:56:18;;;;;;;10.90;7.90;;;;;;;39.02;48.86;98370.00;109471;1250;59277;-70
2023/08/28 07:58:45;;;;;;;13.10;8.40;;;;;;;39.12;48.59;98368.03;109502;1250;59238;-70
2023/08/28 08:01:11;;;;;;;12.00;8.30;;;;;;;39.25;48.25;98368.86;109453;1250;58875;-70
2023/08/28 08:03:38;;;;;;;12.20;7.90;;;;;;;39.30;48.38;98368.27;109615;1250;75092;-70
2023/08/28 08:06:07;;;;;;;12.20;7.20;;;;;;;39.38;47.63;98368.56;109661;1250;67713;-70
2023/08/28 08:08:34;;;;;;;13.50;8.90;;;;;;;39.53;47.68;98362.71;109570;1250;71572;-70
2023/08/28 08:11:01;;;;;;;12.70;7.70;;;;;;;39.65;46.12;98361.39;109623;1250;60386;-70
2023/08/28 08:13:28;;;;;;;9.50;7.40;;;;;;;39.59;46.00;98360.90;109579;1251;59074;-70
2023/08/28 08:15:54;;;;;;;11.10;8.30;;;;;;;39.55;46.36;98366.36;109638;1250;73417;-70
2023/08/28 08:18:21;;;;;;;11.40;7.50;;;;;;;39.57;46.63;98365.90;109668;1250;67906;-72
2023/08/28 08:20:48;;;;;;;8.70;7.80;;;;;;;39.65;46.56;98361.20;109652;1250;71546;-70
2023/08/28 08:23:14;;;;;;;9.50;8.30;;;;;;;39.75;46.43;98359.77;109574;1250;59197;-68
2023/08/28 08:25:41;;;;;;;9.10;8.20;;;;;;;39.78;46.04;98361.67;109650;1250;60921;-69
2023/08/28 08:28:08;;;;;;;13.70;8.30;;;;;;;39.79;45.67;98360.27;109586;1250;73741;-68
2023/08/28 08:30:35;;;;;;;10.30;8.20;;;;;;;39.79;45.53;98360.17;109596;1250;67859;-68
2023/08/28 08:33:01;;;;;;;9.40;8.20;;;;;;;39.93;45.90;98358.42;109649;1250;72637;-69
2023/08/28 08:35:28;;;;;;;8.70;8.00;;;;;;;40.28;44.61;98357.15;109569;1250;58939;-68
2023/08/28 08:37:55;;;;;;;11.70;8.10;;;;;;;40.43;44.11;98354.16;109662;1250;59022;-69
2023/08/28 08:40:24;;;;;;;10.10;8.00;;;;;;;40.51;43.84;98359.63;109566;1250;74602;-68
2023/08/28 08:42:52;;;;;;;12.80;8.90;;;;;;;40.46;44.13;98351.58;109648;1250;68011;-70
2023/08/28 08:45:21;;;;;;;10.10;8.50;;;;;;;40.41;44.51;98353.45;109556;1250;71471;-69
2023/08/28 08:47:48;;;;;;;12.20;8.90;;;;;;;40.41;43.92;98356.07;109500;1251;60161;-70
2023/08/28 08:50:14;;;;;;;10.10;9.00;;;;;;;40.42;44.23;98353.77;109569;1250;59278;-70
2023/08/28 08:52:41;;;;;;;12.70;9.30;;;;;;;40.60;43.85;98355.52;109494;1250;75149;-70
2023/08/28 08:55:18;;;;;;;13.30;8.80;;;;;;;40.84;42.98;98359.77;109592;1250;67408;-69
2023/08/28 08:57:45;;;;;;;9.70;8.90;;;;;;;40.92;42.43;98361.95;109612;1250;71631;-70
2023/08/28 09:00:14;;;;;;;12.10;9.50;;;;;;;40.95;41.71;98365.45;109506;1251;60094;-70
2023/08/28 09:02:45;;;;;;;11.20;8.70;;;;;;;40.86;42.20;98364.30;109605;1250;60201;-70
2023/08/28 09:05:12;;;;;;;10.80;9.00;;;;;;;40.93;42.87;98360.98;109599;1250;74612;-70
2023/08/28 09:07:39;;;;;;;11.60;9.20;;;;;;;40.90;41.83;98355.48;109490;1250;67240;-69
2023/08/28 09:10:07;;;;;;;9.90;8.90;;;;;;;40.88;41.69;98358.81;109533;1250;71385;-71
2023/08/28 09:12:34;;;;;;;11.70;8.90;;;;;;;41.04;41.59;98352.06;109556;1250;60161;-70
2023/08/28 09:15:02;;;;;;;9.90;8.90;;;;;;;41.21;41.61;98352.70;109614;1250;58909;-70
2023/08/28 09:17:29;;;;;;;13.00;9.50;;;;;;;41.24;40.72;98352.77;109617;1250;74632;-68
2023/08/28 09:19:56;;;;;;;10.60;9.60;;;;;;;41.24;39.90;98349.84;109564;1250;67403;-70
2023/08/28 09:22:27;;;;;;;10.20;9.20;;;;;;;41.25;40.34;98348.15;109590;1250;71472;-70
2023/08/28 09:25:03;;;;;;;10.70;9.20;;;;;;;41.29;41.02;98343.77;109573;1250;60074;-69
2023/08/28 09:27:30;;;;;;;10.80;9.70;;;;;;;41.28;40.69;98344.96;109631;1250;60045;-70
2023/08/28 09:29:57;;;;;;;9.90;9.00;;;;;;;41.26;41.50;98339.62;109506;1250;73480;-69
2023/08/28 09:32:26;;;;;;;9.80;9.00;;;;;;;41.32;41.73;98338.27;109527;1250;59693;-70
2023/08/28 09:34:53;;;;;;;9.60;8.90;;;;;;;41.36;41.37;98335.17;109572;1250;71400;-71
2023/08/28 09:37:20;;;;;;;12.50;9.40;;;;;;;41.21;41.17;98333.17;109523;1250;60557;-70
2023/08/28 09:39:56;;;;;;;10.50;9.50;;;;;;;41.21;41.87;98329.10;109622;1250;59048;-70
2023/08/28 09:42:24;;;;;;;10.60;9.00;;;;;;;41.34;41.50;98331.74;109602;1250;74415;-71
2023/08/28 09:44:51;;;;;;;12.80;9.20;;;;;;;41.40;41.52;98333.17;109706;1250;67727;-68
2023/08/28 09:47:23;;;;;;;11.80;9.60;;;;;;;41.39;40.50;98333.10;109628;1250;58970;-71
2023/08/28 09:49:51;;;;;;;11.10;9.70;;;;;;;41.34;39.49;98332.00;109587;1250;59059;-71
2023/08/28 09:52:27;;;;;;;10.90;9.60;;;;;;;41.25;39.47;98332.30;109620;1250;58889;-73
2023/08/28 09:55:01;;;;;;;11.40;9.80;;;;;;;41.12;39.45;98337.40;109682;1250;74438;-73
2023/08/28 09:57:28;;;;;;;10.80;8.80;;;;;;;40.95;39.62;98335.10;109617;1250;67878;-73
2023/08/28 09:59:54;;;;;;;10.40;9.40;;;;;;;40.91;40.44;98339.88;109540;1250;72411;-72
2023/08/28 10:02:21;;;;;;;10.20;9.40;;;;;;;40.93;40.55;98339.02;109634;1251;60241;-75
2023/08/28 10:04:50;;;;;;;10.80;9.80;;;;;;;40.98;40.62;98335.27;109571;1250;58907;-75
2023/08/28 10:07:16;;;;;;;10.40;9.30;;;;;;;41.07;39.83;98333.04;109523;1250;73103;-75
2023/08/28 10:09:43;;;;;;;11.10;10.00;;;;;;;41.05;39.63;98334.30;109689;1250;58957;-71
2023/08/28 10:12:11;;;;;;;10.80;9.60;;;;;;;41.01;39.94;98330.88;109575;1250;71245;-70
2023/08/28 10:14:37;;;;;;;10.80;9.90;;;;;;;40.98;40.67;98329.44;109554;1250;58954;-70
2023/08/28 10:17:04;;;;;;;10.30;9.10;;;;;;;40.90;40.91;98335.08;109561;1250;58986;-69
2023/08/28 10:19:50;;;;;;;10.60;9.60;;;;;;;40.83;40.15;98333.07;109584;1250;77018;-72
2023/08/28 10:22:16;;;;;;;9.10;8.50;;;;;;;41.06;39.70;98330.64;109596;1250;68698;-68
2023/08/28 10:24:43;;;;;;;9.80;8.70;;;;;;;41.32;39.26;98331.98;109604;1250;59007;-69
2023/08/28 10:27:10;;;;;;;11.00;8.90;;;;;;;41.57;38.52;98330.59;109522;1250;59023;-70
2023/08/28 10:29:37;;;;;;;10.20;9.20;;;;;;;41.63;37.27;98332.64;109517;1251;58926;-70
2023/08/28 10:32:13;;;;;;;9.90;9.00;;;;;;;41.56;37.57;98338.72;109650;1250;74760;-70
2023/08/28 10:34:40;;;;;;;11.00;9.80;;;;;;;41.64;37.45;98338.46;109656;1249;66668;-69
2023/08/28 10:37:08;;;;;;;10.20;9.20;;;;;;;41.64;37.12;98337.51;109493;1250;72404;-69
2023/08/28 10:39:48;;;;;;;10.00;9.10;;;;;;;41.47;37.61;98338.02;109559;1250;59761;-69
2023/08/28 10:42:17;;;;;;;11.10;10.10;;;;;;;41.38;37.63;98335.80;109599;1250;58917;-71
2023/08/28 10:44:44;;;;;;;10.50;9.70;;;;;;;41.35;37.79;98335.73;109603;1250;73480;-69
2023/08/28 10:47:18;;;;;;;11.20;9.90;;;;;;;41.38;38.46;98337.31;109652;1250;69376;-69
2023/08/28 10:49:45;;;;;;;10.60;9.50;;;;;;;41.60;38.88;98331.61;109650;1250;71824;-68
2023/08/28 10:52:12;;;;;;;9.90;8.50;;;;;;;41.85;37.87;98335.23;109626;1250;58930;-70
2023/08/28 10:54:43;;;;;;;10.20;9.20;;;;;;;41.73;38.38;98335.27;109611;1250;59217;-69
2023/08/28 10:57:39;;;;;;;10.20;9.00;;;;;;;41.57;39.44;98339.20;109567;1250;73309;-69
2023/08/28 11:00:18;;;;;;;10.40;9.10;;;;;;;41.42;38.87;98337.55;109706;1250;66606;-70
2023/08/28 11:03:06;;;;;;;10.40;9.50;;;;;;;41.17;38.90;98333.66;109700;1250;72742;-69
2023/08/28 11:05:34;;;;;;;12.50;10.20;;;;;;;41.05;38.93;98324.42;109584;1250;62147;-71
2023/08/28 11:08:04;;;;;;;13.80;8.50;;;;;;;40.89;38.72;98323.30;109641;1250;60387;-69
2023/08/28 11:10:31;;;;;;;10.30;9.50;;;;;;;40.61;38.98;98323.58;109635;1250;74644;-70
2023/08/28 11:13:08;;;;;;;9.80;9.00;;;;;;;40.58;40.30;98323.34;109666;1250;67779;-73
2023/08/28 11:15:38;;;;;;;10.40;9.30;;;;;;;40.64;40.32;98322.08;109614;1250;74187;-72
2023/08/28 11:18:24;;;;;;;10.40;9.50;;;;;;;40.54;40.20;98325.08;109716;1249;60361;-71
2023/08/28 11:20:53;;;;;;;10.00;9.10;;;;;;;40.46;40.63;98324.73;109700;1250;59118;-68